Time;durP1;ratioP1;P1;durP2;ratioP2;P2;SDS_P1;SDS_P2;PMS_P1;PMS_P2;Temp;Humidity;BMP_temperature;BMP_pressure;BME280_temperature;BME280_humidity;BME280_pressure;Samples;Min_cycle;Max_cycle;Signal;HPM_P1;HPM_P2
2024/01/27 00:02:11;;;;;;;0.57;0.57;;;;;;;4.23;nan;100009.59;5053315;28;20274;-72
2024/01/27 00:04:39;;;;;;;0.60;0.60;;;;;;;4.17;nan;99997.72;5051956;28;20668;-72
2024/01/27 00:07:07;;;;;;;0.67;0.67;;;;;;;4.24;nan;99999.44;5053106;28;20220;-71
2024/01/27 00:09:33;;;;;;;0.50;0.50;;;;;;;4.23;nan;100007.06;5052969;28;20680;-72
2024/01/27 00:12:00;;;;;;;0.70;0.70;;;;;;;4.28;nan;100012.13;5052140;28;20258;-71
2024/01/27 00:14:28;;;;;;;0.77;0.77;;;;;;;4.32;nan;100019.78;5053037;28;20673;-72
2024/01/27 00:16:54;;;;;;;0.63;0.63;;;;;;;4.36;nan;100020.66;5053001;28;20221;-72
2024/01/27 00:19:21;;;;;;;0.60;0.60;;;;;;;4.30;nan;100007.94;5053067;28;20636;-71
2024/01/27 00:21:48;;;;;;;0.50;0.50;;;;;;;4.45;nan;100024.09;5052834;28;20200;-72
2024/01/27 00:24:16;;;;;;;0.70;0.70;;;;;;;4.42;nan;100021.53;5050554;28;20200;-72
2024/01/27 00:26:44;;;;;;;1.00;1.00;;;;;;;4.41;nan;100024.06;5052242;28;20270;-72
2024/01/27 00:29:11;;;;;;;1.50;1.50;;;;;;;4.39;nan;100031.69;5052425;28;20232;-71
2024/01/27 00:31:37;;;;;;;0.70;0.70;;;;;;;4.37;nan;100012.19;5052710;28;20197;-72
2024/01/27 00:34:04;;;;;;;0.70;0.70;;;;;;;4.32;nan;100013.88;5052564;28;20197;-72
2024/01/27 00:36:32;;;;;;;0.60;0.60;;;;;;;4.29;nan;100006.22;5050769;28;20212;-72
2024/01/27 00:38:59;;;;;;;0.60;0.60;;;;;;;4.32;nan;100009.63;5052750;28;20204;-72
2024/01/27 00:41:27;;;;;;;0.80;0.80;;;;;;;4.32;nan;100013.88;5052569;28;20197;-72
2024/01/27 00:43:53;;;;;;;0.50;0.50;;;;;;;4.38;nan;100007.13;5052675;28;20259;-72
2024/01/27 00:46:20;;;;;;;0.50;0.50;;;;;;;4.39;nan;100003.75;5051883;28;20212;-71
2024/01/27 00:48:47;;;;;;;0.50;0.50;;;;;;;4.42;nan;100001.22;5052427;28;20197;-72
2024/01/27 00:51:14;;;;;;;0.67;0.67;;;;;;;4.39;nan;100007.97;5047712;28;20609;-71
2024/01/27 00:53:41;;;;;;;0.77;0.70;;;;;;;4.33;nan;100000.34;5050509;28;20283;-71
2024/01/27 00:56:08;;;;;;;0.67;0.67;;;;;;;4.34;nan;99996.94;5050279;28;20235;-71
2024/01/27 00:58:36;;;;;;;0.70;0.70;;;;;;;4.35;nan;99985.97;5052255;28;20266;-71
2024/01/27 01:01:03;;;;;;;0.77;0.77;;;;;;;4.23;nan;99974.91;5051966;28;20197;-71
2024/01/27 01:03:29;;;;;;;0.70;0.70;;;;;;;4.16;nan;99979.97;5052210;28;20258;-71
2024/01/27 01:05:56;;;;;;;0.90;0.90;;;;;;;4.10;nan;99975.69;5049636;28;20638;-71
2024/01/27 01:08:23;;;;;;;0.90;0.90;;;;;;;3.93;nan;99972.22;5049064;28;20259;-68
2024/01/27 01:10:50;;;;;;;0.87;0.87;;;;;;;3.76;nan;99971.28;5050933;28;20208;-70
2024/01/27 01:13:16;;;;;;;0.70;0.70;;;;;;;3.62;nan;99963.56;5051554;28;20196;-71
2024/01/27 01:15:44;;;;;;;0.60;0.60;;;;;;;3.53;nan;99949.97;5051462;28;20200;-71
2024/01/27 01:18:11;;;;;;;0.70;0.70;;;;;;;3.43;nan;99950.75;5052162;28;20225;-71
2024/01/27 01:20:38;;;;;;;1.10;1.10;;;;;;;3.38;nan;99952.41;5051723;28;20672;-71
2024/01/27 01:23:05;;;;;;;0.73;0.73;;;;;;;3.33;nan;99933.81;5050571;28;20197;-71
2024/01/27 01:25:31;;;;;;;0.60;0.60;;;;;;;3.36;nan;99943.97;5049431;28;20193;-70
2024/01/27 01:27:58;;;;;;;0.70;0.70;;;;;;;3.31;nan;99950.66;5049876;28;20251;-70
2024/01/27 01:30:25;;;;;;;0.60;0.60;;;;;;;3.29;nan;99942.22;5051184;28;20196;-71
2024/01/27 01:32:53;;;;;;;1.03;1.03;;;;;;;3.35;nan;99954.94;5050035;28;20208;-70
2024/01/27 01:35:20;;;;;;;0.90;0.90;;;;;;;3.35;nan;99952.41;5050970;28;20200;-71
2024/01/27 01:37:48;;;;;;;0.60;0.60;;;;;;;3.37;nan;99938.03;5050919;28;20615;-70
2024/01/27 01:40:15;;;;;;;0.70;0.70;;;;;;;3.48;nan;99946.59;5051470;28;20197;-71
2024/01/27 01:42:41;;;;;;;0.60;0.60;;;;;;;3.52;nan;99943.25;5051557;28;20284;-71
2024/01/27 01:45:12;;;;;;;1.13;1.03;;;;;;;3.57;nan;99946.63;5050297;28;20251;-71
2024/01/27 01:47:38;;;;;;;0.60;0.60;;;;;;;3.59;nan;99947.47;5050639;28;20256;-71
2024/01/27 01:50:09;;;;;;;0.70;0.70;;;;;;;3.60;nan;99949.19;5050506;28;20639;-70
2024/01/27 01:52:37;;;;;;;0.60;0.60;;;;;;;3.68;nan;99943.31;5051134;28;20207;-71
2024/01/27 01:55:04;;;;;;;0.60;0.60;;;;;;;3.72;nan;99928.97;5050052;28;20201;-70
2024/01/27 01:57:32;;;;;;;0.60;0.60;;;;;;;3.71;nan;99907.03;5049057;28;20549;-71
2024/01/27 01:59:58;;;;;;;0.60;0.60;;;;;;;3.80;nan;99909.59;5050952;28;20204;-70
2024/01/27 02:02:25;;;;;;;0.70;0.70;;;;;;;3.74;nan;99889.28;5051238;28;20270;-71
2024/01/27 02:04:52;;;;;;;0.70;0.70;;;;;;;3.87;nan;99903.72;5049187;28;20246;-71
2024/01/27 02:07:20;;;;;;;0.70;0.70;;;;;;;3.88;nan;99915.53;5050465;28;20270;-70
2024/01/27 02:09:46;;;;;;;0.70;0.70;;;;;;;3.91;nan;99930.78;5049780;28;20201;-71
2024/01/27 02:12:13;;;;;;;0.67;0.67;;;;;;;3.94;nan;99935.84;5050416;28;20196;-71
2024/01/27 02:14:40;;;;;;;0.77;0.77;;;;;;;3.92;nan;99940.09;5050011;28;20634;-71
2024/01/27 02:17:06;;;;;;;0.50;0.50;;;;;;;3.92;nan;99932.47;5050658;28;20224;-71
2024/01/27 02:19:33;;;;;;;0.53;0.53;;;;;;;3.91;nan;99935.84;5050886;28;20220;-71
2024/01/27 02:22:00;;;;;;;0.70;0.70;;;;;;;3.92;nan;99927.41;5050901;28;20193;-71
2024/01/27 02:24:28;;;;;;;0.60;0.60;;;;;;;3.93;nan;99929.09;5047449;28;20592;-71
2024/01/27 02:26:55;;;;;;;0.87;0.87;;;;;;;3.92;nan;99935.00;5048699;28;20270;-71
2024/01/27 02:29:22;;;;;;;0.70;0.70;;;;;;;3.89;nan;99927.38;5049315;28;20196;-71
2024/01/27 02:31:48;;;;;;;0.60;0.60;;;;;;;3.91;nan;99932.47;5049846;28;20250;-70
2024/01/27 02:34:15;;;;;;;0.60;0.60;;;;;;;3.91;nan;99935.84;5050086;28;20261;-70
2024/01/27 02:36:43;;;;;;;0.80;0.80;;;;;;;3.86;nan;99936.66;5049487;28;20196;-70
2024/01/27 02:39:10;;;;;;;0.60;0.60;;;;;;;3.86;nan;99941.75;5046820;28;20261;-70
2024/01/27 02:41:39;;;;;;;0.70;0.70;;;;;;;3.77;nan;99937.47;5050682;28;22169;-70
2024/01/27 02:44:05;;;;;;;0.90;0.90;;;;;;;3.73;nan;99940.81;5050277;28;20203;-70
2024/01/27 02:46:32;;;;;;;0.63;0.63;;;;;;;3.67;nan;99938.25;5050029;28;20679;-70
2024/01/27 02:48:59;;;;;;;0.60;0.60;;;;;;;3.67;nan;99920.50;5050428;28;20204;-70
2024/01/27 02:51:26;;;;;;;0.60;0.60;;;;;;;3.62;nan;99922.16;5050680;28;20276;-70
2024/01/27 02:53:52;;;;;;;0.70;0.70;;;;;;;3.61;nan;99912.88;5049764;28;20247;-70
2024/01/27 02:56:19;;;;;;;0.57;0.57;;;;;;;3.59;nan;99912.00;5049188;28;20630;-70
2024/01/27 02:58:47;;;;;;;0.63;0.63;;;;;;;3.57;nan;99918.75;5050372;28;20209;-70
2024/01/27 03:01:14;;;;;;;0.97;0.97;;;;;;;3.55;nan;99903.56;5050328;28;20247;-70
2024/01/27 03:03:41;;;;;;;0.60;0.60;;;;;;;3.61;nan;99920.47;5049800;28;20205;-70
2024/01/27 03:06:07;;;;;;;0.50;0.50;;;;;;;3.64;nan;99925.56;5049267;28;20638;-69
2024/01/27 03:08:34;;;;;;;0.70;0.70;;;;;;;3.62;nan;99923.00;5049850;28;20246;-69
2024/01/27 03:11:01;;;;;;;0.83;0.83;;;;;;;3.69;nan;99903.59;5050398;28;20255;-70
2024/01/27 03:13:27;;;;;;;0.60;0.60;;;;;;;3.72;nan;99898.56;5050198;28;20196;-70
2024/01/27 03:15:56;;;;;;;0.70;0.70;;;;;;;3.75;nan;99901.09;5047859;28;20274;-70
2024/01/27 03:18:24;;;;;;;0.70;0.70;;;;;;;3.74;nan;99896.03;5049644;28;20216;-69
2024/01/27 03:20:51;;;;;;;0.60;0.60;;;;;;;3.70;nan;99901.09;5050266;28;20306;-69
2024/01/27 03:23:17;;;;;;;0.60;0.60;;;;;;;3.73;nan;99900.25;5049881;28;20192;-70
2024/01/27 03:25:44;;;;;;;0.73;0.73;;;;;;;3.76;nan;99901.94;5049866;28;20196;-69
2024/01/27 03:28:11;;;;;;;0.90;0.90;;;;;;;3.74;nan;99896.03;5054115;28;20212;-69
2024/01/27 03:30:38;;;;;;;0.60;0.60;;;;;;;3.67;nan;99896.00;5054476;28;20193;-70
2024/01/27 03:33:10;;;;;;;0.60;0.60;;;;;;;3.66;nan;99895.97;5053202;28;20657;-69
2024/01/27 03:35:37;;;;;;;0.60;0.60;;;;;;;3.60;nan;99889.22;5052735;28;20200;-70
2024/01/27 03:38:04;;;;;;;0.60;0.60;;;;;;;3.65;nan;99881.63;5050194;28;20201;-70
2024/01/27 03:40:30;;;;;;;1.10;1.10;;;;;;;3.64;nan;99859.66;5053768;28;20264;-70
2024/01/27 03:42:57;;;;;;;0.70;0.70;;;;;;;3.66;nan;99875.72;5053903;28;20554;-69
2024/01/27 03:45:24;;;;;;;0.53;0.53;;;;;;;3.65;nan;99886.72;5052977;28;20201;-69
2024/01/27 03:47:51;;;;;;;0.80;0.80;;;;;;;3.55;nan;99865.53;5053894;28;20278;-70
2024/01/27 03:50:19;;;;;;;0.67;0.67;;;;;;;3.59;nan;99874.81;5053729;28;20622;-70
2024/01/27 03:52:45;;;;;;;0.70;0.70;;;;;;;3.58;nan;99859.63;5053747;28;20206;-70
2024/01/27 03:55:12;;;;;;;0.60;0.60;;;;;;;3.63;nan;99868.09;5050563;28;20687;-70
2024/01/27 03:57:39;;;;;;;0.70;0.70;;;;;;;3.68;nan;99861.38;5053373;28;20255;-69
2024/01/27 04:00:07;;;;;;;0.60;0.60;;;;;;;3.67;nan;99860.50;5051451;28;20200;-69
2024/01/27 04:02:34;;;;;;;0.67;0.67;;;;;;;3.67;nan;99854.59;5052302;28;20200;-70
2024/01/27 04:05:00;;;;;;;0.60;0.60;;;;;;;3.59;nan;99838.47;5051353;28;20208;-70
2024/01/27 04:07:28;;;;;;;0.70;0.70;;;;;;;3.59;nan;99831.72;5052727;28;20224;-69
2024/01/27 04:09:55;;;;;;;0.63;0.63;;;;;;;3.65;nan;99846.16;5053643;28;20622;-70
2024/01/27 04:12:22;;;;;;;0.90;0.90;;;;;;;3.64;nan;99849.50;5053619;28;20275;-69
2024/01/27 04:14:48;;;;;;;0.53;0.53;;;;;;;3.70;nan;99844.47;5051635;28;20200;-69
2024/01/27 04:17:15;;;;;;;0.80;0.80;;;;;;;3.70;nan;99845.31;5053139;28;20225;-70
2024/01/27 04:19:42;;;;;;;0.50;0.50;;;;;;;3.62;nan;99828.34;5051427;28;20262;-70
2024/01/27 04:22:09;;;;;;;0.67;0.67;;;;;;;3.73;nan;99834.34;5052183;28;20261;-69
2024/01/27 04:24:37;;;;;;;1.17;1.17;;;;;;;3.79;nan;99834.34;5051903;28;20243;-69
2024/01/27 04:27:04;;;;;;;0.60;0.60;;;;;;;3.83;nan;99846.22;5052961;28;20278;-69
2024/01/27 04:29:30;;;;;;;0.70;0.70;;;;;;;3.78;nan;99837.72;5052839;28;20196;-69
2024/01/27 04:31:57;;;;;;;0.60;0.60;;;;;;;3.79;nan;99838.56;5052729;28;20688;-69
2024/01/27 04:34:24;;;;;;;0.70;0.70;;;;;;;3.77;nan;99840.28;5051717;28;20254;-69
2024/01/27 04:36:52;;;;;;;1.07;1.07;;;;;;;3.78;nan;99830.13;5052471;28;20204;-70
2024/01/27 04:39:19;;;;;;;0.73;0.73;;;;;;;3.69;nan;99822.47;5052561;28;20232;-69
2024/01/27 04:41:47;;;;;;;0.53;0.53;;;;;;;3.76;nan;99839.41;5051067;28;20254;-69
2024/01/27 04:44:13;;;;;;;0.60;0.60;;;;;;;3.70;nan;99825.03;5050923;28;20255;-70
2024/01/27 04:46:40;;;;;;;0.50;0.50;;;;;;;3.80;nan;99833.53;5052316;28;20223;-69
2024/01/27 04:49:07;;;;;;;0.63;0.63;;;;;;;3.82;nan;99829.28;5050975;28;20928;-70
2024/01/27 04:51:33;;;;;;;0.63;0.63;;;;;;;3.86;nan;99830.16;5052564;28;20668;-69
2024/01/27 04:54:00;;;;;;;1.20;1.20;;;;;;;3.90;nan;99826.78;5050907;28;20650;-70
2024/01/27 04:56:27;;;;;;;0.60;0.60;;;;;;;3.86;nan;99815.78;5052092;28;20197;-69
2024/01/27 04:58:55;;;;;;;0.67;0.67;;;;;;;3.91;nan;99819.19;5052091;28;20746;-69
2024/01/27 05:01:22;;;;;;;0.80;0.80;;;;;;;3.87;nan;99812.44;5052381;28;20201;-70
2024/01/27 05:03:48;;;;;;;0.90;0.90;;;;;;;3.88;nan;99819.16;5051301;28;20262;-70
2024/01/27 05:06:21;;;;;;;0.60;0.60;;;;;;;3.73;nan;99798.84;5051912;28;20287;-70
2024/01/27 05:08:48;;;;;;;0.60;0.60;;;;;;;3.78;nan;99802.22;5051936;28;20213;-70
2024/01/27 05:11:17;;;;;;;0.50;0.50;;;;;;;3.80;nan;99820.84;5052133;28;20201;-70
2024/01/27 05:13:44;;;;;;;1.00;1.00;;;;;;;3.77;nan;99819.97;5051648;28;20200;-70
2024/01/27 05:16:12;;;;;;;0.67;0.67;;;;;;;3.78;nan;99814.91;5050426;28;20291;-70
2024/01/27 05:18:39;;;;;;;1.17;1.17;;;;;;;3.84;nan;99825.09;5050635;28;20221;-69
2024/01/27 05:21:05;;;;;;;0.70;0.70;;;;;;;3.87;nan;99830.19;5049631;28;20196;-70
2024/01/27 05:23:32;;;;;;;0.67;0.67;;;;;;;3.86;nan;99820.88;5047454;28;20197;-68
2024/01/27 05:25:59;;;;;;;0.50;0.50;;;;;;;3.92;nan;99825.94;5051913;28;20592;-68
2024/01/27 05:28:26;;;;;;;0.60;0.60;;;;;;;3.76;nan;99803.91;5051781;28;20270;-68
2024/01/27 05:30:52;;;;;;;0.63;0.63;;;;;;;3.98;nan;99831.03;5051748;28;20200;-68
2024/01/27 05:33:20;;;;;;;1.40;1.37;;;;;;;3.95;nan;99831.03;5048656;28;20200;-69
2024/01/27 05:35:47;;;;;;;0.63;0.63;;;;;;;4.04;nan;99835.31;5051307;28;20262;-68
2024/01/27 05:38:14;;;;;;;0.70;0.70;;;;;;;4.04;nan;99840.38;5051370;28;20193;-69
2024/01/27 05:40:41;;;;;;;0.60;0.60;;;;;;;4.05;nan;99844.59;5051144;28;20201;-69
2024/01/27 05:43:07;;;;;;;0.70;0.70;;;;;;;4.03;nan;99844.59;5046084;28;20759;-69
2024/01/27 05:45:36;;;;;;;0.50;0.50;;;;;;;4.03;nan;99854.75;5051242;28;20231;-70
2024/01/27 05:48:03;;;;;;;0.60;0.60;;;;;;;4.03;nan;99839.53;5050126;28;20291;-70
2024/01/27 05:50:32;;;;;;;0.93;0.70;;;;;;;4.04;nan;99850.53;5051055;28;20715;-69
2024/01/27 05:52:58;;;;;;;0.70;0.70;;;;;;;3.99;nan;99844.56;5050881;28;20591;-69
2024/01/27 05:55:25;;;;;;;0.70;0.70;;;;;;;4.02;nan;99858.13;5051250;28;20227;-69
2024/01/27 05:57:52;;;;;;;0.60;0.60;;;;;;;4.05;nan;99855.59;5051418;28;20196;-69
2024/01/27 06:00:19;;;;;;;0.60;0.60;;;;;;;4.05;nan;99847.97;5050650;28;20204;-70
2024/01/27 06:02:45;;;;;;;0.60;0.60;;;;;;;4.10;nan;99846.28;5050300;28;20903;-71
2024/01/27 06:05:12;;;;;;;0.60;0.60;;;;;;;4.13;nan;99845.47;5048706;28;20204;-70
2024/01/27 06:07:41;;;;;;;0.70;0.70;;;;;;;4.12;nan;99839.56;5051235;28;20254;-70
2024/01/27 06:10:09;;;;;;;0.93;0.93;;;;;;;4.23;nan;99847.19;5050707;28;20741;-70
2024/01/27 06:12:36;;;;;;;0.70;0.70;;;;;;;4.23;nan;99842.94;5050552;28;20201;-70
2024/01/27 06:15:02;;;;;;;0.60;0.60;;;;;;;4.28;nan;99849.72;5051397;28;20196;-70
2024/01/27 06:17:29;;;;;;;0.90;0.90;;;;;;;4.31;nan;99849.72;5051162;28;20250;-70
2024/01/27 06:19:56;;;;;;;0.73;0.73;;;;;;;4.33;nan;99843.00;5051299;28;20196;-70
2024/01/27 06:22:23;;;;;;;0.50;0.50;;;;;;;4.36;nan;99850.59;5050168;28;20584;-70
2024/01/27 06:24:51;;;;;;;0.50;0.50;;;;;;;4.39;nan;99853.16;5051029;28;20259;-70
2024/01/27 06:27:18;;;;;;;0.80;0.80;;;;;;;4.43;nan;99859.91;5051058;28;20196;-70
2024/01/27 06:29:44;;;;;;;0.50;0.50;;;;;;;4.51;nan;99848.94;5050943;28;20212;-70
2024/01/27 06:32:11;;;;;;;0.50;0.50;;;;;;;4.54;nan;99853.16;5046225;28;20258;-70
2024/01/27 06:34:38;;;;;;;0.87;0.87;;;;;;;4.57;nan;99838.78;5044488;28;20214;-69
2024/01/27 06:37:04;;;;;;;0.73;0.73;;;;;;;4.62;nan;99842.16;5050116;28;20270;-69
2024/01/27 06:39:31;;;;;;;1.00;1.00;;;;;;;4.62;nan;99842.16;5049601;28;20270;-69
2024/01/27 06:41:59;;;;;;;0.60;0.60;;;;;;;4.65;nan;99847.22;5047039;28;20565;-69
2024/01/27 06:44:26;;;;;;;0.50;0.50;;;;;;;4.68;nan;99837.09;5050408;28;20247;-69
2024/01/27 06:46:53;;;;;;;0.80;0.80;;;;;;;4.72;nan;99843.00;5048311;28;20673;-69
2024/01/27 06:49:19;;;;;;;1.07;1.07;;;;;;;4.75;nan;99835.38;5047063;28;20302;-69
2024/01/27 06:51:46;;;;;;;0.50;0.50;;;;;;;4.78;nan;99837.97;5047524;28;20311;-69
2024/01/27 06:54:13;;;;;;;0.90;0.90;;;;;;;4.80;nan;99841.34;5048501;28;20270;-68
2024/01/27 06:56:39;;;;;;;0.60;0.60;;;;;;;4.88;nan;99834.53;5047537;28;20200;-69
2024/01/27 06:59:07;;;;;;;0.60;0.60;;;;;;;4.91;nan;99833.72;5052308;28;20197;-69
2024/01/27 07:01:34;;;;;;;1.03;1.03;;;;;;;4.97;nan;99826.94;5052852;28;20192;-69
2024/01/27 07:04:01;;;;;;;0.80;0.80;;;;;;;5.03;nan;99839.63;5054607;28;20204;-69
2024/01/27 07:06:28;;;;;;;0.80;0.80;;;;;;;5.06;nan;99844.72;5052412;28;20266;-69
2024/01/27 07:08:54;;;;;;;0.50;0.50;;;;;;;5.05;nan;99843.00;5054496;28;20224;-70
2024/01/27 07:11:21;;;;;;;0.97;0.97;;;;;;;5.07;nan;99845.56;5048463;28;20208;-69
2024/01/27 07:13:48;;;;;;;0.90;0.90;;;;;;;5.00;nan;99839.63;5052022;28;20205;-69
2024/01/27 07:16:16;;;;;;;0.67;0.63;;;;;;;4.96;nan;99832.84;5051374;28;20200;-69
2024/01/27 07:18:42;;;;;;;0.60;0.60;;;;;;;5.07;nan;99835.41;5050915;28;20720;-69
2024/01/27 07:21:09;;;;;;;0.63;0.63;;;;;;;5.09;nan;99844.72;5051219;28;20208;-69
2024/01/27 07:23:36;;;;;;;0.73;0.73;;;;;;;5.11;nan;99837.91;5053151;28;20205;-69
2024/01/27 07:26:03;;;;;;;0.53;0.53;;;;;;;5.14;nan;99848.06;5049784;28;20204;-69
2024/01/27 07:28:30;;;;;;;0.77;0.63;;;;;;;5.13;nan;99850.63;5051614;28;20671;-69
2024/01/27 07:30:57;;;;;;;1.27;1.27;;;;;;;5.12;nan;99854.00;5053088;28;20722;-69
2024/01/27 07:33:25;;;;;;;0.90;0.90;;;;;;;5.13;nan;99859.09;5050994;28;20205;-69
2024/01/27 07:35:52;;;;;;;1.00;1.00;;;;;;;5.12;nan;99854.00;5050242;28;20689;-69
2024/01/27 07:38:18;;;;;;;0.77;0.77;;;;;;;5.11;nan;99863.31;5052269;28;20217;-69
2024/01/27 07:40:45;;;;;;;0.63;0.63;;;;;;;5.11;nan;99843.00;5047098;28;20271;-69
2024/01/27 07:43:12;;;;;;;0.70;0.70;;;;;;;5.11;nan;99850.63;5050748;28;20259;-69
2024/01/27 07:45:38;;;;;;;0.73;0.73;;;;;;;5.10;nan;99833.69;5050749;28;20714;-69
2024/01/27 07:48:06;;;;;;;0.83;0.83;;;;;;;5.21;nan;99834.50;5050595;28;20278;-69
2024/01/27 07:50:34;;;;;;;0.90;0.90;;;;;;;5.23;nan;99819.28;5049552;28;20204;-69
2024/01/27 07:53:02;;;;;;;0.80;0.80;;;;;;;5.23;nan;99799.75;5050622;28;20699;-69
2024/01/27 07:55:28;;;;;;;0.53;0.53;;;;;;;5.49;nan;99824.28;5052811;28;20196;-69
2024/01/27 07:57:55;;;;;;;0.60;0.60;;;;;;;5.57;nan;99817.47;5050559;28;20235;-69
2024/01/27 08:00:22;;;;;;;0.70;0.70;;;;;;;5.62;nan;99795.44;5050270;28;20201;-69
2024/01/27 08:02:48;;;;;;;0.63;0.63;;;;;;;5.76;nan;99791.13;5050433;28;20622;-69
2024/01/27 08:05:15;;;;;;;0.60;0.60;;;;;;;5.85;nan;99778.34;5052400;28;20356;-69
2024/01/27 08:07:43;;;;;;;0.87;0.87;;;;;;;6.00;nan;99783.41;5052018;28;20254;-69
2024/01/27 08:10:11;;;;;;;0.50;0.50;;;;;;;6.09;nan;99765.53;5047961;28;20220;-69
2024/01/27 08:12:38;;;;;;;0.80;0.80;;;;;;;6.23;nan;99735.75;5051976;28;20580;-69
2024/01/27 08:15:06;;;;;;;0.60;0.60;;;;;;;6.39;nan;99748.34;5048518;28;20270;-69
2024/01/27 08:17:32;;;;;;;0.57;0.57;;;;;;;6.53;nan;99741.41;5050901;28;20606;-69
2024/01/27 08:20:00;;;;;;;0.70;0.70;;;;;;;6.23;nan;99684.84;5049688;28;20201;-69
2024/01/27 08:22:26;;;;;;;0.60;0.60;;;;;;;6.65;nan;99743.88;5050554;28;20209;-69
2024/01/27 08:24:54;;;;;;;0.60;0.60;;;;;;;6.62;nan;99754.94;5047841;28;20638;-69
2024/01/27 08:27:21;;;;;;;1.00;1.00;;;;;;;6.71;nan;99754.88;5049314;28;20266;-69
2024/01/27 08:29:48;;;;;;;1.13;1.13;;;;;;;6.62;nan;99743.91;5046155;28;20216;-69
2024/01/27 08:32:15;;;;;;;0.60;0.60;;;;;;;6.72;nan;99776.09;5048328;28;20220;-69
2024/01/27 08:34:42;;;;;;;0.70;0.70;;;;;;;6.70;nan;99790.53;5048177;28;20204;-68
2024/01/27 08:37:16;;;;;;;0.70;0.70;;;;;;;6.61;nan;99791.47;5049244;28;20202;-69
2024/01/27 08:39:43;;;;;;;0.60;0.60;;;;;;;6.70;nan;99818.56;5047435;28;20209;-68
2024/01/27 08:42:11;;;;;;;0.63;0.60;;;;;;;6.73;nan;99809.19;5050400;28;20201;-69
2024/01/27 08:44:37;;;;;;;1.00;1.00;;;;;;;6.85;nan;99823.50;5049542;28;20201;-69
2024/01/27 08:47:04;;;;;;;0.67;0.67;;;;;;;6.94;nan;99828.56;5050957;28;20699;-69
2024/01/27 08:49:31;;;;;;;0.50;0.50;;;;;;;7.02;nan;99820.81;5047996;28;20221;-69
2024/01/27 08:51:58;;;;;;;0.60;0.60;;;;;;;7.12;nan;99813.09;5050151;28;20270;-69
2024/01/27 08:54:25;;;;;;;0.90;0.90;;;;;;;7.26;nan;99821.47;5050095;28;20259;-69
2024/01/27 08:56:51;;;;;;;0.83;0.83;;;;;;;7.45;nan;99821.25;5047629;28;20650;-69
2024/01/27 08:59:19;;;;;;;1.10;1.10;;;;;;;7.60;nan;99827.03;5047822;28;20251;-68
2024/01/27 09:01:46;;;;;;;0.70;0.70;;;;;;;7.73;nan;99830.28;5048363;28;20292;-69
2024/01/27 09:04:13;;;;;;;0.83;0.83;;;;;;;8.02;nan;99825.66;5050224;28;20270;-69
2024/01/27 09:06:40;;;;;;;0.60;0.60;;;;;;;8.31;nan;99832.94;5051670;28;20673;-69
2024/01/27 09:09:07;;;;;;;0.80;0.80;;;;;;;8.41;nan;99832.81;5051471;28;20223;-69
2024/01/27 09:11:34;;;;;;;1.00;1.00;;;;;;;8.67;nan;99811.97;5051244;28;20652;-68
2024/01/27 09:14:01;;;;;;;0.83;0.83;;;;;;;8.98;nan;99802.09;5051199;28;20688;-68
2024/01/27 09:16:29;;;;;;;0.67;0.67;;;;;;;9.12;nan;99809.50;5050604;28;20250;-69
2024/01/27 09:18:56;;;;;;;0.63;0.63;;;;;;;9.36;nan;99802.25;5050537;28;20614;-69
2024/01/27 09:21:27;;;;;;;0.90;0.90;;;;;;;9.48;nan;99789.19;5044618;28;20762;-69
2024/01/27 09:23:54;;;;;;;0.70;0.70;;;;;;;9.72;nan;99789.59;5048295;28;20603;-69
2024/01/27 09:26:22;;;;;;;3.40;1.00;;;;;;;9.81;nan;99789.41;5045617;28;20201;-69
2024/01/27 09:28:53;;;;;;;0.90;0.90;;;;;;;10.02;nan;99782.09;5047214;28;20205;-69
2024/01/27 09:31:22;;;;;;;0.93;0.93;;;;;;;10.08;nan;99781.09;5047906;28;20215;-69
2024/01/27 09:33:51;;;;;;;4.73;0.70;;;;;;;10.19;nan;99780.91;5050761;28;20688;-69
2024/01/27 09:36:18;;;;;;;0.80;0.80;;;;;;;10.27;nan;99777.31;5047623;28;20276;-68
2024/01/27 09:38:45;;;;;;;0.67;0.67;;;;;;;10.29;nan;99767.00;5046563;28;20254;-69
2024/01/27 09:41:14;;;;;;;0.60;0.60;;;;;;;10.35;nan;99772.84;5048447;28;20636;-70
2024/01/27 09:43:44;;;;;;;0.70;0.70;;;;;;;10.27;nan;99777.31;5049973;28;20200;-69
2024/01/27 09:46:11;;;;;;;1.13;0.80;;;;;;;10.14;nan;99773.34;5050585;28;20652;-68
2024/01/27 09:48:38;;;;;;;0.90;0.90;;;;;;;10.14;nan;99785.31;5048665;28;20278;-69
2024/01/27 09:51:08;;;;;;;0.73;0.73;;;;;;;10.25;nan;99788.44;5045755;28;20278;-69
2024/01/27 09:53:35;;;;;;;0.57;0.57;;;;;;;10.41;nan;99795.75;5048866;28;20266;-69
2024/01/27 09:56:03;;;;;;;0.70;0.70;;;;;;;10.40;nan;99777.88;5048496;28;20197;-69
2024/01/27 09:58:31;;;;;;;0.70;0.70;;;;;;;10.48;nan;99791.34;5048294;28;20203;-69
2024/01/27 10:00:59;;;;;;;0.50;0.50;;;;;;;10.29;nan;99796.03;5046773;28;20200;-68
2024/01/27 10:03:27;;;;;;;0.80;0.80;;;;;;;9.95;nan;99774.59;5045230;28;20201;-69
2024/01/27 10:05:55;;;;;;;1.00;1.00;;;;;;;10.03;nan;99794.03;5049750;28;20302;-68
2024/01/27 10:08:24;;;;;;;0.87;0.87;;;;;;;10.08;nan;99801.59;5048662;28;20262;-69
2024/01/27 10:10:55;;;;;;;0.60;0.60;;;;;;;10.39;nan;99800.09;5044910;28;20286;-69
2024/01/27 10:13:26;;;;;;;0.63;0.63;;;;;;;10.54;nan;99792.03;5049682;28;20270;-69
2024/01/27 10:16:01;;;;;;;1.00;1.00;;;;;;;10.68;nan;99767.78;5046274;28;20209;-69
2024/01/27 10:18:28;;;;;;;0.57;0.57;;;;;;;10.76;nan;99787.22;5049188;28;20318;-69
2024/01/27 10:20:55;;;;;;;0.80;0.80;;;;;;;10.85;nan;99779.31;5050083;28;20653;-68
2024/01/27 10:23:23;;;;;;;0.70;0.70;;;;;;;10.95;nan;99792.75;5048490;28;20200;-68
2024/01/27 10:25:50;;;;;;;1.07;1.07;;;;;;;10.96;nan;99789.28;5049821;28;20209;-68
2024/01/27 10:28:17;;;;;;;1.50;0.90;;;;;;;11.04;nan;99797.66;5049487;28;20286;-70
2024/01/27 10:30:44;;;;;;;0.70;0.70;;;;;;;11.10;nan;99812.88;5048757;28;20224;-69
2024/01/27 10:33:13;;;;;;;0.60;0.60;;;;;;;11.05;nan;99809.56;5046757;28;20201;-69
2024/01/27 10:35:40;;;;;;;0.77;0.63;;;;;;;11.09;nan;99811.19;5050091;28;20205;-69
2024/01/27 10:38:07;;;;;;;0.90;0.90;;;;;;;11.14;nan;99824.75;5046361;28;20576;-68
2024/01/27 10:40:36;;;;;;;0.53;0.53;;;;;;;11.10;nan;99827.41;5048473;28;20220;-68
2024/01/27 10:43:05;;;;;;;1.10;1.10;;;;;;;11.00;nan;99829.38;5050183;28;20274;-68
2024/01/27 10:45:37;;;;;;;0.70;0.70;;;;;;;10.96;nan;99820.06;5050312;28;20714;-69
2024/01/27 10:48:05;;;;;;;0.60;0.60;;;;;;;11.05;nan;99812.97;5048530;28;20251;-69
2024/01/27 10:50:35;;;;;;;1.33;0.70;;;;;;;11.21;nan;99826.25;5049247;28;20270;-69
2024/01/27 10:53:04;;;;;;;0.77;0.77;;;;;;;11.22;nan;99825.38;5046221;28;20204;-69
2024/01/27 10:55:32;;;;;;;0.60;0.60;;;;;;;11.26;nan;99834.69;5049626;28;20559;-69
2024/01/27 10:58:02;;;;;;;0.70;0.70;;;;;;;11.29;nan;99829.47;5049278;28;20672;-69
2024/01/27 11:00:30;;;;;;;6.43;0.87;;;;;;;11.36;nan;99831.00;5049029;28;20193;-68
2024/01/27 11:02:59;;;;;;;0.60;0.60;;;;;;;11.37;nan;99832.66;5048767;28;20197;-68
2024/01/27 11:05:28;;;;;;;0.80;0.80;;;;;;;11.36;nan;99837.84;5049160;28;20197;-68
2024/01/27 11:07:55;;;;;;;0.53;0.53;;;;;;;11.20;nan;99821.19;5049785;28;20270;-68
2024/01/27 11:10:22;;;;;;;0.70;0.70;;;;;;;11.16;nan;99815.28;5048826;28;20217;-68
2024/01/27 11:12:51;;;;;;;0.57;0.57;;;;;;;11.02;nan;99810.50;5046952;28;20489;-68
2024/01/27 11:15:19;;;;;;;0.70;0.70;;;;;;;10.96;nan;99814.94;5047261;28;20197;-68
2024/01/27 11:17:46;;;;;;;2.57;0.83;;;;;;;10.85;nan;99787.00;5044437;28;20713;-68
2024/01/27 11:20:15;;;;;;;0.60;0.60;;;;;;;10.78;nan;99803.44;5049706;28;20197;-68
2024/01/27 11:22:43;;;;;;;0.90;0.90;;;;;;;10.87;nan;99804.91;5046608;28;20201;-68
2024/01/27 11:25:16;;;;;;;0.60;0.60;;;;;;;10.97;nan;99803.81;5049304;28;20295;-68
2024/01/27 11:27:44;;;;;;;0.77;0.77;;;;;;;11.21;nan;99810.84;5049141;28;20653;-69
2024/01/27 11:30:28;;;;;;;0.70;0.70;;;;;;;11.13;nan;99812.78;5049596;28;20271;-68
2024/01/27 11:32:55;;;;;;;0.80;0.80;;;;;;;11.12;nan;99823.94;5048344;28;20209;-68
2024/01/27 11:35:22;;;;;;;0.80;0.80;;;;;;;11.03;nan;99804.50;5047867;28;20200;-68
2024/01/27 11:37:49;;;;;;;0.77;0.77;;;;;;;11.06;nan;99836.91;5049682;28;20702;-68
2024/01/27 11:40:16;;;;;;;0.53;0.53;;;;;;;10.83;nan;99844.34;5049854;28;20206;-68
2024/01/27 11:42:43;;;;;;;0.70;0.70;;;;;;;10.72;nan;99846.31;5047144;28;20266;-68
2024/01/27 11:45:10;;;;;;;0.53;0.53;;;;;;;10.52;nan;99847.63;5049606;28;20247;-68
2024/01/27 11:47:38;;;;;;;0.70;0.70;;;;;;;10.38;nan;99839.41;5053734;28;20652;-68
2024/01/27 11:50:05;;;;;;;0.60;0.60;;;;;;;10.38;nan;99847.09;5052588;28;20824;-68
2024/01/27 11:52:32;;;;;;;1.10;1.10;;;;;;;10.22;nan;99848.28;5049672;28;20262;-68
2024/01/27 11:55:00;;;;;;;0.60;0.60;;;;;;;9.89;nan;99820.78;5052914;28;20209;-68
2024/01/27 11:57:27;;;;;;;0.80;0.80;;;;;;;9.99;nan;99833.38;5053433;28;20204;-68